Time;durP1;ratioP1;P1;durP2;ratioP2;P2;SDS_P1;SDS_P2;PMS_P1;PMS_P2;Temp;Humidity;BMP_temperature;BMP_pressure;BME280_temperature;BME280_humidity;BME280_pressure;Samples;Min_cycle;Max_cycle;Signal;HPM_P1;HPM_P2
2023/05/20 00:01:48;;;;;;;9.43;1.85;;;;;;;;;;4970388;28;20385;-44
2023/05/20 00:04:15;;;;;;;10.15;1.70;;;;;;;;;;4970037;28;20038;-43
2023/05/20 00:06:42;;;;;;;6.43;1.83;;;;;;;;;;4970870;28;20035;-44
2023/05/20 00:09:09;;;;;;;8.55;2.05;;;;;;;;;;4970781;28;20421;-43
2023/05/20 00:11:36;;;;;;;11.70;1.95;;;;;;;;;;4970553;28;20023;-43
2023/05/20 00:14:03;;;;;;;9.55;2.10;;;;;;;;;;4971453;28;20129;-47
2023/05/20 00:16:30;;;;;;;16.27;3.15;;;;;;;;;;4968926;28;20027;-45
2023/05/20 00:18:58;;;;;;;23.58;5.28;;;;;;;;;;4969460;28;20038;-45
2023/05/20 00:21:25;;;;;;;37.72;9.35;;;;;;;;;;4970822;28;20381;-44
2023/05/20 00:23:52;;;;;;;68.60;15.38;;;;;;;;;;4971855;28;20046;-43
2023/05/20 00:26:20;;;;;;;77.28;19.05;;;;;;;;;;4971495;28;20035;-43
2023/05/20 00:28:47;;;;;;;79.55;22.63;;;;;;;;;;4973961;28;20046;-43
2023/05/20 00:31:14;;;;;;;81.90;24.23;;;;;;;;;;4970906;28;20048;-44
2023/05/20 00:33:41;;;;;;;92.90;25.90;;;;;;;;;;4974470;28;20421;-42
2023/05/20 00:36:08;;;;;;;99.57;28.15;;;;;;;;;;4974927;28;20093;-44
2023/05/20 00:38:35;;;;;;;105.22;31.17;;;;;;;;;;4974811;28;20039;-44
2023/05/20 00:41:02;;;;;;;114.55;32.17;;;;;;;;;;4957757;28;20066;-44
2023/05/20 00:43:29;;;;;;;115.80;33.53;;;;;;;;;;4985528;28;20125;-43
2023/05/20 00:45:56;;;;;;;115.03;33.80;;;;;;;;;;4976489;28;20408;-43
2023/05/20 00:48:23;;;;;;;116.85;34.80;;;;;;;;;;4975201;28;20066;-42
2023/05/20 00:50:51;;;;;;;120.30;35.53;;;;;;;;;;4974176;28;20072;-47
2023/05/20 00:53:18;;;;;;;112.80;36.30;;;;;;;;;;4973731;28;20043;-43
2023/05/20 00:55:45;;;;;;;116.93;35.88;;;;;;;;;;4973917;28;20030;-44
2023/05/20 00:58:12;;;;;;;120.78;34.53;;;;;;;;;;4973968;28;20031;-44
2023/05/20 01:00:39;;;;;;;122.50;35.25;;;;;;;;;;4973984;28;20035;-43
2023/05/20 01:03:06;;;;;;;110.18;33.38;;;;;;;;;;4973289;28;20126;-42
2023/05/20 01:05:33;;;;;;;124.70;35.90;;;;;;;;;;4973872;28;20031;-44
2023/05/20 01:08:01;;;;;;;118.68;33.22;;;;;;;;;;4973979;28;20034;-44
2023/05/20 01:10:29;;;;;;;111.07;32.90;;;;;;;;;;4973977;28;20097;-47
2023/05/20 01:12:58;;;;;;;103.15;32.55;;;;;;;;;;4974335;28;20062;-43
2023/05/20 01:15:27;;;;;;;107.60;32.95;;;;;;;;;;4974317;28;20489;-43
2023/05/20 01:18:00;;;;;;;92.68;30.35;;;;;;;;;;4974459;28;20125;-44
2023/05/20 01:20:29;;;;;;;95.68;30.30;;;;;;;;;;4974227;28;20049;-44
2023/05/20 01:22:56;;;;;;;97.80;31.23;;;;;;;;;;4974142;28;20101;-44
2023/05/20 01:25:25;;;;;;;93.95;30.13;;;;;;;;;;4974571;28;20449;-43
2023/05/20 01:27:53;;;;;;;91.80;29.85;;;;;;;;;;4970588;28;20050;-43
2023/05/20 01:30:20;;;;;;;94.57;30.73;;;;;;;;;;4972481;28;20046;-44
2023/05/20 01:33:05;;;;;;;85.95;28.83;;;;;;;;;;4972492;28;20061;-44
2023/05/20 01:35:33;;;;;;;98.43;30.27;;;;;;;;;;4972087;28;20567;-42
2023/05/20 01:38:00;;;;;;;98.68;30.10;;;;;;;;;;4972975;28;20090;-42
2023/05/20 01:40:28;;;;;;;87.00;27.70;;;;;;;;;;4973017;28;20038;-43
2023/05/20 01:42:56;;;;;;;96.97;29.80;;;;;;;;;;4973498;28;20038;-42
2023/05/20 01:45:24;;;;;;;84.55;28.15;;;;;;;;;;4973508;28;20039;-43
2023/05/20 01:47:51;;;;;;;76.00;26.90;;;;;;;;;;4973257;28;20055;-41
2023/05/20 01:50:18;;;;;;;80.20;26.23;;;;;;;;;;4973241;28;20084;-43
2023/05/20 01:52:45;;;;;;;77.93;26.05;;;;;;;;;;4973352;28;20034;-42
2023/05/20 01:55:12;;;;;;;82.10;25.30;;;;;;;;;;4964970;28;20098;-42
2023/05/20 01:57:39;;;;;;;78.05;24.90;;;;;;;;;;4972780;28;20026;-42
2023/05/20 02:00:06;;;;;;;84.78;25.70;;;;;;;;;;4972913;28;20117;-43
2023/05/20 02:02:33;;;;;;;76.15;24.33;;;;;;;;;;4970650;28;20086;-46
2023/05/20 02:05:00;;;;;;;71.00;24.73;;;;;;;;;;4971197;28;20034;-42
2023/05/20 02:07:27;;;;;;;66.03;22.98;;;;;;;;;;4972897;28;20053;-43
2023/05/20 02:09:54;;;;;;;69.18;22.80;;;;;;;;;;4973165;28;20027;-42
2023/05/20 02:12:22;;;;;;;69.82;22.60;;;;;;;;;;4973633;28;20019;-43
2023/05/20 02:14:49;;;;;;;72.07;23.20;;;;;;;;;;4972872;28;20041;-43
2023/05/20 02:17:19;;;;;;;64.93;22.10;;;;;;;;;;4973258;28;20485;-45
2023/05/20 02:19:46;;;;;;;58.55;21.15;;;;;;;;;;4973397;28;20157;-42
2023/05/20 02:22:14;;;;;;;68.45;21.75;;;;;;;;;;4971898;28;20113;-43
2023/05/20 02:24:42;;;;;;;59.67;20.48;;;;;;;;;;4973067;28;20026;-44
2023/05/20 02:27:09;;;;;;;58.72;20.48;;;;;;;;;;4971744;28;20034;-44
2023/05/20 02:29:37;;;;;;;55.78;19.30;;;;;;;;;;4971979;28;20041;-44
2023/05/20 02:32:05;;;;;;;56.13;19.10;;;;;;;;;;4969842;28;20034;-42
2023/05/20 02:34:36;;;;;;;58.83;19.52;;;;;;;;;;4971816;28;20042;-42
2023/05/20 02:37:04;;;;;;;56.47;20.00;;;;;;;;;;4970717;28;20034;-43
2023/05/20 02:39:31;;;;;;;58.60;19.35;;;;;;;;;;4971985;28;20030;-45
2023/05/20 02:41:58;;;;;;;46.85;18.20;;;;;;;;;;4972435;28;20027;-43
2023/05/20 02:44:25;;;;;;;64.25;19.00;;;;;;;;;;4972329;28;20033;-42
2023/05/20 02:46:52;;;;;;;46.70;17.65;;;;;;;;;;4971710;28;20042;-42
2023/05/20 02:49:20;;;;;;;49.08;17.77;;;;;;;;;;4971256;28;20113;-42
2023/05/20 02:51:47;;;;;;;47.45;17.23;;;;;;;;;;4972597;28;20122;-42
2023/05/20 02:54:14;;;;;;;48.80;18.00;;;;;;;;;;4969728;28;20022;-42
2023/05/20 02:56:41;;;;;;;48.33;17.30;;;;;;;;;;4972282;28;20104;-42
2023/05/20 02:59:08;;;;;;;43.92;16.33;;;;;;;;;;4972853;28;20362;-42
2023/05/20 03:01:35;;;;;;;43.50;15.55;;;;;;;;;;4970119;28;20034;-43
2023/05/20 03:04:03;;;;;;;50.65;17.00;;;;;;;;;;4972114;28;20039;-43
2023/05/20 03:06:33;;;;;;;44.00;16.05;;;;;;;;;;4972367;28;20039;-43
2023/05/20 03:09:00;;;;;;;41.00;16.05;;;;;;;;;;4972324;28;20039;-45
2023/05/20 03:11:27;;;;;;;42.45;16.40;;;;;;;;;;4970981;28;20050;-43
2023/05/20 03:13:54;;;;;;;45.75;16.27;;;;;;;;;;4972263;28;20037;-42
2023/05/20 03:16:21;;;;;;;43.50;14.55;;;;;;;;;;4972201;28;20027;-42
2023/05/20 03:18:48;;;;;;;39.58;15.50;;;;;;;;;;4972288;28;20035;-42
2023/05/20 03:21:15;;;;;;;37.58;14.57;;;;;;;;;;4969865;28;20033;-46
2023/05/20 03:23:42;;;;;;;34.90;14.23;;;;;;;;;;4972157;28;20053;-41
2023/05/20 03:26:09;;;;;;;37.70;14.82;;;;;;;;;;4971979;28;20030;-42
2023/05/20 03:28:36;;;;;;;38.00;14.43;;;;;;;;;;4970828;28;20042;-43
2023/05/20 03:31:03;;;;;;;37.60;14.63;;;;;;;;;;4972226;28;20033;-42
2023/05/20 03:33:32;;;;;;;42.05;14.50;;;;;;;;;;4972005;28;20030;-44
2023/05/20 03:35:59;;;;;;;36.85;13.07;;;;;;;;;;4972397;28;20049;-42
2023/05/20 03:38:27;;;;;;;39.47;14.50;;;;;;;;;;4972088;28;20033;-43
2023/05/20 03:40:54;;;;;;;39.55;13.93;;;;;;;;;;4969283;28;20037;-42
2023/05/20 03:43:21;;;;;;;34.95;13.70;;;;;;;;;;4971543;28;20078;-42
2023/05/20 03:45:48;;;;;;;36.10;13.75;;;;;;;;;;4969467;28;20112;-42
2023/05/20 03:48:15;;;;;;;33.53;12.25;;;;;;;;;;4972071;28;20031;-44
2023/05/20 03:50:42;;;;;;;34.47;12.77;;;;;;;;;;4971881;28;20427;-42
2023/05/20 03:53:09;;;;;;;34.58;13.43;;;;;;;;;;4971959;28;20121;-41
2023/05/20 03:55:38;;;;;;;31.85;11.85;;;;;;;;;;4972012;28;20023;-42
2023/05/20 03:58:05;;;;;;;30.70;11.98;;;;;;;;;;4971863;28;20039;-43
2023/05/20 04:00:32;;;;;;;33.83;11.85;;;;;;;;;;4972071;28;20039;-41
2023/05/20 04:02:59;;;;;;;31.48;11.90;;;;;;;;;;4971852;28;20137;-42
2023/05/20 04:05:26;;;;;;;32.20;12.40;;;;;;;;;;4971506;28;20512;-42
2023/05/20 04:07:56;;;;;;;30.60;11.30;;;;;;;;;;4973952;28;20038;-41
2023/05/20 04:10:23;;;;;;;31.10;12.15;;;;;;;;;;4975509;28;20454;-41
2023/05/20 04:12:51;;;;;;;31.85;11.30;;;;;;;;;;4975552;28;20058;-41
2023/05/20 04:15:18;;;;;;;31.30;12.18;;;;;;;;;;4975251;28;20448;-42
2023/05/20 04:17:47;;;;;;;29.58;11.00;;;;;;;;;;4975471;28;20078;-43
2023/05/20 04:20:14;;;;;;;28.73;11.00;;;;;;;;;;4974126;28;20060;-42
2023/05/20 04:22:41;;;;;;;31.33;11.05;;;;;;;;;;4975167;28;20094;-43
2023/05/20 04:25:08;;;;;;;30.65;11.18;;;;;;;;;;4972473;28;20031;-42
2023/05/20 04:27:38;;;;;;;27.13;10.63;;;;;;;;;;4975083;28;20572;-42
2023/05/20 04:30:06;;;;;;;28.42;10.70;;;;;;;;;;4975199;28;20567;-42
2023/05/20 04:32:33;;;;;;;28.90;11.23;;;;;;;;;;4975590;28;20034;-42
2023/05/20 04:35:07;;;;;;;25.55;9.77;;;;;;;;;;4975649;28;20046;-43
2023/05/20 04:37:36;;;;;;;27.85;10.73;;;;;;;;;;4975668;28;20117;-41
2023/05/20 04:40:05;;;;;;;23.35;9.48;;;;;;;;;;4975683;28;20070;-42
2023/05/20 04:42:33;;;;;;;23.80;9.60;;;;;;;;;;4975231;28;20057;-42
2023/05/20 04:45:00;;;;;;;24.27;9.75;;;;;;;;;;4975895;28;20062;-42
2023/05/20 04:47:31;;;;;;;25.55;9.85;;;;;;;;;;4975332;28;20083;-43
2023/05/20 04:49:58;;;;;;;22.83;9.48;;;;;;;;;;4975495;28;20795;-42
2023/05/20 04:52:25;;;;;;;21.98;9.65;;;;;;;;;;4975329;28;20030;-41
2023/05/20 04:54:52;;;;;;;19.38;8.50;;;;;;;;;;4975529;28;20031;-41
2023/05/20 04:57:19;;;;;;;26.05;9.00;;;;;;;;;;4975402;28;20027;-41
2023/05/20 04:59:47;;;;;;;20.98;9.32;;;;;;;;;;4975260;28;20026;-42
2023/05/20 05:02:14;;;;;;;18.90;8.10;;;;;;;;;;4975256;28;20497;-41
2023/05/20 05:04:41;;;;;;;20.23;8.80;;;;;;;;;;4975156;28;20089;-42
2023/05/20 05:07:08;;;;;;;20.30;8.13;;;;;;;;;;4975105;28;20050;-42
2023/05/20 05:09:35;;;;;;;25.08;8.60;;;;;;;;;;4975197;28;20022;-42
2023/05/20 05:12:02;;;;;;;19.35;7.90;;;;;;;;;;4975155;28;20038;-42
2023/05/20 05:14:29;;;;;;;23.67;8.30;;;;;;;;;;4974936;28;20030;-41
2023/05/20 05:16:56;;;;;;;21.38;8.48;;;;;;;;;;4975273;28;20027;-42
2023/05/20 05:19:23;;;;;;;21.98;8.60;;;;;;;;;;4974271;28;20026;-42
2023/05/20 05:21:50;;;;;;;17.40;7.82;;;;;;;;;;4974770;28;20514;-42
2023/05/20 05:24:17;;;;;;;17.48;7.45;;;;;;;;;;4974802;28;20034;-42
2023/05/20 05:26:44;;;;;;;20.73;7.80;;;;;;;;;;4974949;28;20097;-42
2023/05/20 05:29:12;;;;;;;17.60;7.63;;;;;;;;;;4974908;28;20818;-41
2023/05/20 05:31:39;;;;;;;18.38;7.50;;;;;;;;;;4974929;28;20027;-42
2023/05/20 05:34:06;;;;;;;17.27;7.90;;;;;;;;;;4974480;28;20035;-42
2023/05/20 05:36:34;;;;;;;14.25;7.20;;;;;;;;;;4974718;28;20031;-41
2023/05/20 05:39:01;;;;;;;16.17;7.30;;;;;;;;;;4974641;28;20031;-43
2023/05/20 05:41:27;;;;;;;17.75;6.75;;;;;;;;;;4974713;28;20030;-45
2023/05/20 05:43:54;;;;;;;17.35;6.88;;;;;;;;;;4974304;28;20105;-41
2023/05/20 05:46:21;;;;;;;16.60;6.70;;;;;;;;;;4974265;28;20043;-42
2023/05/20 05:48:49;;;;;;;16.73;6.97;;;;;;;;;;4974391;28;20026;-41
2023/05/20 05:51:16;;;;;;;17.50;6.70;;;;;;;;;;4974348;28;20610;-42
2023/05/20 05:53:43;;;;;;;18.25;6.47;;;;;;;;;;4974192;28;20062;-42
2023/05/20 05:56:10;;;;;;;11.77;5.65;;;;;;;;;;4974352;28;20031;-42
2023/05/20 05:58:38;;;;;;;15.23;6.55;;;;;;;;;;4974132;28;20030;-43
2023/05/20 06:01:05;;;;;;;14.90;6.47;;;;;;;;;;4972988;28;20034;-42
2023/05/20 06:03:32;;;;;;;13.23;6.18;;;;;;;;;;4973900;28;20047;-42
2023/05/20 06:05:59;;;;;;;17.35;6.68;;;;;;;;;;4973984;28;20031;-42
2023/05/20 06:08:26;;;;;;;16.38;6.32;;;;;;;;;;4972813;28;20366;-42
2023/05/20 06:10:53;;;;;;;16.52;6.32;;;;;;;;;;4974048;28;20027;-42
2023/05/20 06:13:20;;;;;;;14.20;6.25;;;;;;;;;;4973883;28;20037;-42
2023/05/20 06:15:49;;;;;;;14.38;6.18;;;;;;;;;;4973906;28;20027;-42
2023/05/20 06:18:16;;;;;;;14.90;5.68;;;;;;;;;;4973777;28;20022;-42
2023/05/20 06:20:43;;;;;;;12.10;5.68;;;;;;;;;;4973881;28;20030;-42
2023/05/20 06:23:10;;;;;;;13.70;5.45;;;;;;;;;;4973759;28;20485;-42
2023/05/20 06:25:37;;;;;;;13.40;6.00;;;;;;;;;;4973782;28;20066;-42
2023/05/20 06:28:04;;;;;;;13.75;5.60;;;;;;;;;;4973763;28;20030;-42
2023/05/20 06:30:31;;;;;;;16.85;6.00;;;;;;;;;;4972998;28;20066;-42
2023/05/20 06:32:58;;;;;;;12.90;5.60;;;;;;;;;;4973413;28;20089;-41
2023/05/20 06:35:25;;;;;;;13.32;5.88;;;;;;;;;;4972397;28;20041;-42
2023/05/20 06:37:52;;;;;;;11.25;5.32;;;;;;;;;;4973534;28;20404;-42
2023/05/20 06:40:19;;;;;;;13.73;5.30;;;;;;;;;;4973757;28;20396;-42
2023/05/20 06:42:46;;;;;;;11.57;5.25;;;;;;;;;;4973222;28;20027;-42
2023/05/20 06:45:13;;;;;;;15.07;4.90;;;;;;;;;;4973468;28;20027;-42
2023/05/20 06:47:40;;;;;;;10.05;4.85;;;;;;;;;;4973333;28;20059;-42
2023/05/20 06:50:08;;;;;;;10.23;4.80;;;;;;;;;;4973392;28;20110;-42
2023/05/20 06:52:35;;;;;;;11.65;4.47;;;;;;;;;;4973266;28;20093;-42
2023/05/20 06:55:02;;;;;;;10.57;4.85;;;;;;;;;;4973223;28;20019;-41
2023/05/20 06:57:29;;;;;;;10.65;4.75;;;;;;;;;;4973243;28;20473;-42
2023/05/20 06:59:56;;;;;;;12.60;4.82;;;;;;;;;;4973269;28;20515;-41
2023/05/20 07:02:23;;;;;;;10.98;4.55;;;;;;;;;;4973002;28;20388;-43
2023/05/20 07:04:50;;;;;;;9.77;4.65;;;;;;;;;;4973204;28;20034;-41
2023/05/20 07:07:17;;;;;;;11.18;4.68;;;;;;;;;;4973106;28;20102;-42
2023/05/20 07:09:44;;;;;;;9.35;4.65;;;;;;;;;;4972983;28;20019;-42
2023/05/20 07:12:11;;;;;;;11.55;4.53;;;;;;;;;;4973069;28;20039;-42
2023/05/20 07:14:38;;;;;;;12.32;4.65;;;;;;;;;;4973021;28;20543;-42
2023/05/20 07:17:05;;;;;;;11.45;4.22;;;;;;;;;;4973005;28;20058;-42
2023/05/20 07:19:32;;;;;;;9.55;4.43;;;;;;;;;;4972987;28;20030;-42
2023/05/20 07:21:59;;;;;;;10.00;4.43;;;;;;;;;;4972835;28;20030;-41
2023/05/20 07:24:26;;;;;;;10.45;4.05;;;;;;;;;;4972757;28;20458;-41
2023/05/20 07:26:53;;;;;;;9.02;4.47;;;;;;;;;;4972872;28;20054;-41
2023/05/20 07:29:21;;;;;;;9.30;4.18;;;;;;;;;;4972817;28;20023;-41
2023/05/20 07:31:47;;;;;;;9.98;4.28;;;;;;;;;;4972796;28;20146;-41
2023/05/20 07:34:14;;;;;;;9.77;4.60;;;;;;;;;;4972825;28;20031;-41
2023/05/20 07:36:42;;;;;;;7.75;3.95;;;;;;;;;;4972837;28;20030;-42
2023/05/20 07:39:09;;;;;;;8.13;3.92;;;;;;;;;;4972768;28;20031;-42
2023/05/20 07:41:37;;;;;;;8.40;4.20;;;;;;;;;;4974270;28;20088;-41
2023/05/20 07:44:07;;;;;;;10.38;4.00;;;;;;;;;;4976628;28;20042;-41
2023/05/20 07:46:37;;;;;;;7.78;3.63;;;;;;;;;;4969750;28;20047;-42
2023/05/20 07:49:04;;;;;;;12.27;4.20;;;;;;;;;;4976715;28;20030;-41
2023/05/20 07:51:31;;;;;;;7.40;3.13;;;;;;;;;;4976666;28;20027;-42
2023/05/20 07:53:58;;;;;;;10.48;3.95;;;;;;;;;;4976401;28;20022;-41
2023/05/20 07:56:25;;;;;;;9.48;3.55;;;;;;;;;;4976399;28;20027;-41
2023/05/20 07:58:53;;;;;;;7.97;3.47;;;;;;;;;;4976507;28;20547;-42
2023/05/20 08:01:20;;;;;;;7.57;3.58;;;;;;;;;;4976394;28;20474;-43
2023/05/20 08:03:47;;;;;;;8.40;3.70;;;;;;;;;;4976152;28;20037;-42
2023/05/20 08:06:14;;;;;;;7.03;3.45;;;;;;;;;;4976321;28;20030;-42
2023/05/20 08:08:41;;;;;;;7.00;3.53;;;;;;;;;;4976379;28;20023;-42
2023/05/20 08:11:09;;;;;;;8.32;3.80;;;;;;;;;;4976334;28;20027;-42
2023/05/20 08:13:36;;;;;;;7.22;3.40;;;;;;;;;;4976095;28;20038;-42
2023/05/20 08:16:04;;;;;;;9.90;3.50;;;;;;;;;;4976187;28;20037;-42
2023/05/20 08:18:32;;;;;;;7.28;3.10;;;;;;;;;;4975986;28;20062;-41
2023/05/20 08:20:59;;;;;;;7.10;3.50;;;;;;;;;;4976416;28;20035;-42
2023/05/20 08:23:26;;;;;;;6.60;2.92;;;;;;;;;;4975850;28;20034;-41
2023/05/20 08:25:53;;;;;;;7.97;3.08;;;;;;;;;;4976023;28;20524;-41
2023/05/20 08:28:20;;;;;;;7.85;3.42;;;;;;;;;;4975667;28;20030;-43
2023/05/20 08:30:48;;;;;;;7.28;3.38;;;;;;;;;;4975948;28;20018;-43
2023/05/20 08:33:15;;;;;;;7.13;3.25;;;;;;;;;;4975639;28;20038;-42
2023/05/20 08:35:42;;;;;;;7.03;3.05;;;;;;;;;;4975798;28;20071;-41
2023/05/20 08:38:09;;;;;;;7.00;3.42;;;;;;;;;;4975802;28;20174;-42
2023/05/20 08:40:36;;;;;;;7.85;3.30;;;;;;;;;;4975710;28;20468;-41
2023/05/20 08:43:04;;;;;;;5.55;2.80;;;;;;;;;;4975505;28;20050;-41
2023/05/20 08:45:32;;;;;;;6.95;3.20;;;;;;;;;;4975216;28;20101;-42
2023/05/20 08:48:00;;;;;;;5.47;2.75;;;;;;;;;;4975665;28;20037;-42
2023/05/20 08:50:27;;;;;;;7.18;3.28;;;;;;;;;;4975465;28;20444;-42
2023/05/20 08:52:54;;;;;;;6.60;2.65;;;;;;;;;;4974663;28;20106;-42
2023/05/20 08:56:01;;;;;;;4.60;2.75;;;;;;;;;;4975384;28;20087;-42
2023/05/20 08:58:29;;;;;;;6.35;2.60;;;;;;;;;;4915613;29;20099;-41
2023/05/20 09:00:57;;;;;;;6.97;3.17;;;;;;;;;;4966118;28;20090;-41
2023/05/20 09:03:24;;;;;;;6.70;2.63;;;;;;;;;;4975129;28;20165;-42
2023/05/20 09:05:53;;;;;;;5.18;2.90;;;;;;;;;;4975359;28;20389;-41
2023/05/20 09:08:20;;;;;;;3.95;2.30;;;;;;;;;;4975092;28;20034;-42
2023/05/20 09:10:47;;;;;;;6.05;2.67;;;;;;;;;;4975190;28;20078;-41
2023/05/20 09:13:14;;;;;;;6.57;2.70;;;;;;;;;;4975175;28;20421;-42
2023/05/20 09:15:41;;;;;;;7.88;2.90;;;;;;;;;;4974926;28;20173;-41
2023/05/20 09:18:08;;;;;;;5.68;2.75;;;;;;;;;;4975130;28;20027;-42
2023/05/20 09:20:37;;;;;;;4.28;2.40;;;;;;;;;;4975012;28;20028;-42
2023/05/20 09:23:05;;;;;;;7.15;2.85;;;;;;;;;;4974872;28;20081;-41
2023/05/20 09:25:33;;;;;;;6.15;2.42;;;;;;;;;;4974830;28;20528;-41
2023/05/20 09:28:00;;;;;;;6.03;2.50;;;;;;;;;;4974843;28;20786;-42
2023/05/20 09:30:27;;;;;;;6.00;2.70;;;;;;;;;;4974632;28;20058;-42
2023/05/20 09:32:58;;;;;;;4.15;2.30;;;;;;;;;;4974703;28;20508;-42
2023/05/20 09:35:26;;;;;;;5.50;2.40;;;;;;;;;;4974822;28;20022;-42
2023/05/20 09:37:56;;;;;;;5.03;2.35;;;;;;;;;;4974770;28;20059;-42
2023/05/20 09:40:27;;;;;;;5.60;2.50;;;;;;;;;;4974651;28;20026;-43
2023/05/20 09:42:56;;;;;;;3.53;2.40;;;;;;;;;;4974251;28;20038;-41
2023/05/20 09:45:23;;;;;;;4.88;2.45;;;;;;;;;;4974552;28;20030;-42
2023/05/20 09:47:54;;;;;;;6.25;2.40;;;;;;;;;;4974379;28;20046;-42
2023/05/20 09:50:22;;;;;;;4.85;2.33;;;;;;;;;;4974392;28;20560;-41
2023/05/20 09:52:52;;;;;;;4.95;2.53;;;;;;;;;;4974414;28;20022;-41
2023/05/20 09:55:20;;;;;;;4.72;2.50;;;;;;;;;;4974324;28;20027;-41
2023/05/20 09:57:47;;;;;;;5.60;2.75;;;;;;;;;;4974295;28;20117;-42
2023/05/20 10:00:16;;;;;;;7.05;2.67;;;;;;;;;;4974062;28;20026;-42
2023/05/20 10:02:52;;;;;;;7.22;2.63;;;;;;;;;;4974052;28;20077;-42
2023/05/20 10:05:22;;;;;;;4.10;2.10;;;;;;;;;;4973181;28;20023;-41
2023/05/20 10:07:50;;;;;;;5.00;2.33;;;;;;;;;;4973853;28;20543;-42
2023/05/20 10:10:53;;;;;;;5.70;2.33;;;;;;;;;;4974074;28;20034;-42
2023/05/20 10:13:35;;;;;;;7.77;2.53;;;;;;;;;;4914448;29;20043;-43
2023/05/20 10:16:24;;;;;;;5.20;2.33;;;;;;;;;;4968502;28;20278;-42
2023/05/20 10:18:58;;;;;;;3.85;2.40;;;;;;;;;;4973833;28;20511;-42
2023/05/20 10:21:25;;;;;;;5.90;2.40;;;;;;;;;;4973955;28;20093;-44
2023/05/20 10:23:52;;;;;;;3.70;2.03;;;;;;;;;;4973782;28;20501;-41
2023/05/20 10:26:21;;;;;;;4.65;2.20;;;;;;;;;;4973734;28;20041;-41
2023/05/20 10:28:49;;;;;;;4.50;2.15;;;;;;;;;;4973813;28;20114;-43
2023/05/20 10:31:17;;;;;;;4.72;1.92;;;;;;;;;;4973614;28;20023;-43
2023/05/20 10:33:45;;;;;;;3.08;1.90;;;;;;;;;;4973566;28;20026;-41
2023/05/20 10:36:23;;;;;;;3.88;2.05;;;;;;;;;;4973734;28;20030;-44
2023/05/20 10:38:53;;;;;;;4.95;2.17;;;;;;;;;;4973640;28;20054;-42
2023/05/20 10:41:27;;;;;;;4.15;2.20;;;;;;;;;;4973358;28;20400;-44
2023/05/20 10:44:01;;;;;;;5.10;1.98;;;;;;;;;;4973565;28;20378;-43
2023/05/20 10:46:29;;;;;;;4.97;2.35;;;;;;;;;;4973230;28;20468;-41
2023/05/20 10:48:56;;;;;;;5.18;2.08;;;;;;;;;;4973353;28;20033;-42
2023/05/20 10:51:24;;;;;;;4.25;2.00;;;;;;;;;;4973218;28;20499;-42
2023/05/20 10:53:54;;;;;;;4.70;1.77;;;;;;;;;;4973206;28;20477;-42
2023/05/20 10:56:21;;;;;;;4.22;1.85;;;;;;;;;;4973305;28;20026;-41
2023/05/20 10:58:49;;;;;;;4.85;1.90;;;;;;;;;;4973283;28;20041;-42
2023/05/20 11:01:17;;;;;;;4.85;1.90;;;;;;;;;;4973227;28;20038;-41
2023/05/20 11:03:49;;;;;;;3.05;1.80;;;;;;;;;;4972845;28;20136;-41
2023/05/20 11:06:20;;;;;;;4.30;2.07;;;;;;;;;;4972786;28;20069;-42
2023/05/20 11:08:47;;;;;;;4.60;2.30;;;;;;;;;;4973035;28;20058;-42
2023/05/20 11:11:14;;;;;;;2.70;1.55;;;;;;;;;;4973172;28;20026;-42
2023/05/20 11:13:42;;;;;;;5.03;1.90;;;;;;;;;;4973020;28;20031;-42
2023/05/20 11:16:09;;;;;;;5.00;1.70;;;;;;;;;;4972827;28;20389;-41
2023/05/20 11:18:36;;;;;;;6.47;1.83;;;;;;;;;;4973105;28;20109;-42
2023/05/20 11:21:03;;;;;;;4.47;1.80;;;;;;;;;;4973089;28;20085;-42
2023/05/20 11:23:30;;;;;;;2.97;1.67;;;;;;;;;;4972895;28;20523;-42
2023/05/20 11:25:57;;;;;;;3.53;1.40;;;;;;;;;;4972995;28;20069;-42
2023/05/20 11:28:25;;;;;;;5.25;1.85;;;;;;;;;;4973003;28;20393;-42
2023/05/20 11:30:52;;;;;;;3.72;1.60;;;;;;;;;;4972869;28;20065;-41
2023/05/20 11:33:20;;;;;;;2.95;1.58;;;;;;;;;;4972930;28;20042;-42
2023/05/20 11:35:52;;;;;;;2.35;1.50;;;;;;;;;;4972979;28;20038;-42
2023/05/20 11:38:20;;;;;;;3.50;1.70;;;;;;;;;;4973024;28;20019;-42
2023/05/20 11:40:50;;;;;;;3.28;1.65;;;;;;;;;;4969578;28;20058;-42
2023/05/20 11:43:18;;;;;;;4.30;1.67;;;;;;;;;;4970625;28;20054;-42
2023/05/20 11:45:53;;;;;;;3.75;1.60;;;;;;;;;;4970835;28;20027;-41
2023/05/20 11:48:20;;;;;;;6.93;2.08;;;;;;;;;;4971871;28;20033;-42
2023/05/20 11:50:47;;;;;;;6.13;1.60;;;;;;;;;;4971716;28;20600;-42
2023/05/20 11:53:16;;;;;;;5.90;1.85;;;;;;;;;;4972088;28;20034;-42
2023/05/20 11:55:50;;;;;;;6.97;1.70;;;;;;;;;;4968608;28;20035;-42
2023/05/20 11:58:19;;;;;;;8.43;1.85;;;;;;;;;;4972361;28;20485;-43
2023/05/20 12:00:46;;;;;;;7.40;1.80;;;;;;;;;;4972256;28;20034;-44
2023/05/20 12:03:13;;;;;;;9.32;2.10;;;;;;;;;;4972136;28;20038;-43
2023/05/20 12:05:40;;;;;;;6.30;2.30;;;;;;;;;;4972393;28;20508;-42
2023/05/20 12:08:07;;;;;;;6.00;2.03;;;;;;;;;;4972290;28;20359;-42
2023/05/20 12:10:36;;;;;;;4.63;1.80;;;;;;;;;;4972187;28;20475;-44
2023/05/20 12:13:07;;;;;;;5.28;2.00;;;;;;;;;;4972112;28;20082;-43
2023/05/20 12:15:37;;;;;;;6.30;1.90;;;;;;;;;;4972112;28;20088;-42
2023/05/20 12:18:04;;;;;;;5.72;1.58;;;;;;;;;;4972243;28;20034;-43
2023/05/20 12:20:33;;;;;;;6.70;1.80;;;;;;;;;;4972110;28;20133;-42
2023/05/20 12:23:00;;;;;;;5.00;1.60;;;;;;;;;;4971887;28;20043;-43
2023/05/20 12:25:27;;;;;;;5.05;1.50;;;;;;;;;;4971949;28;20031;-42
2023/05/20 12:27:55;;;;;;;4.32;1.92;;;;;;;;;;4972575;28;20042;-43
2023/05/20 12:30:23;;;;;;;8.07;1.58;;;;;;;;;;4975611;28;20389;-41
2023/05/20 12:32:50;;;;;;;5.35;2.03;;;;;;;;;;4975352;28;20023;-43
2023/05/20 12:35:18;;;;;;;7.05;2.00;;;;;;;;;;4975427;28;20106;-41
2023/05/20 12:37:45;;;;;;;9.07;1.90;;;;;;;;;;4974124;28;20043;-43
2023/05/20 12:40:12;;;;;;;8.13;1.70;;;;;;;;;;4975184;28;20122;-42
2023/05/20 12:42:39;;;;;;;10.57;2.00;;;;;;;;;;4974925;28;20069;-44
2023/05/20 12:45:08;;;;;;;10.85;1.98;;;;;;;;;;4975389;28;20114;-42
2023/05/20 12:47:35;;;;;;;7.55;1.75;;;;;;;;;;4975129;28;20421;-44
2023/05/20 12:50:03;;;;;;;6.57;1.70;;;;;;;;;;4974889;28;20030;-43
2023/05/20 12:52:30;;;;;;;6.43;1.80;;;;;;;;;;4975310;28;20058;-42
2023/05/20 12:54:57;;;;;;;6.70;1.90;;;;;;;;;;4974183;28;20041;-42
2023/05/20 12:57:24;;;;;;;5.78;1.55;;;;;;;;;;4974696;28;20038;-42
2023/05/20 12:59:51;;;;;;;6.40;1.80;;;;;;;;;;4974916;28;20135;-42
2023/05/20 13:02:19;;;;;;;6.75;1.30;;;;;;;;;;4975050;28;20489;-42
2023/05/20 13:04:46;;;;;;;11.50;1.92;;;;;;;;;;4975069;28;20046;-42
2023/05/20 13:07:13;;;;;;;17.23;2.42;;;;;;;;;;4975061;28;20043;-42
2023/05/20 13:09:40;;;;;;;25.02;2.50;;;;;;;;;;4974968;28;20097;-41
2023/05/20 13:12:07;;;;;;;12.13;1.95;;;;;;;;;;4973484;28;20042;-42
2023/05/20 13:14:35;;;;;;;16.05;2.20;;;;;;;;;;4973317;28;20027;-43
2023/05/20 13:17:02;;;;;;;18.05;2.70;;;;;;;;;;4974396;28;20030;-42
2023/05/20 13:19:29;;;;;;;13.25;2.67;;;;;;;;;;4974576;28;20027;-42
2023/05/20 13:21:56;;;;;;;9.63;2.42;;;;;;;;;;4974439;28;20037;-41
2023/05/20 13:24:23;;;;;;;21.42;2.95;;;;;;;;;;4972441;28;20533;-41
2023/05/20 13:26:50;;;;;;;21.38;3.08;;;;;;;;;;4981840;28;20033;-42
2023/05/20 13:29:17;;;;;;;23.83;3.47;;;;;;;;;;4974048;28;20030;-42
2023/05/20 13:31:44;;;;;;;47.40;4.78;;;;;;;;;;4971878;28;20031;-45
2023/05/20 13:34:11;;;;;;;26.98;3.33;;;;;;;;;;4974001;28;20057;-43
2023/05/20 13:36:39;;;;;;;25.08;3.17;;;;;;;;;;4973043;28;20022;-43
2023/05/20 13:39:06;;;;;;;21.92;3.67;;;;;;;;;;4973039;28;20093;-45
2023/05/20 13:41:33;;;;;;;21.52;4.05;;;;;;;;;;4972364;28;20118;-43
2023/05/20 13:44:00;;;;;;;21.02;3.30;;;;;;;;;;4970949;28;20421;-43
2023/05/20 13:46:27;;;;;;;23.48;3.38;;;;;;;;;;4968963;28;20438;-41
2023/05/20 13:48:54;;;;;;;68.97;7.28;;;;;;;;;;4972341;28;20110;-40
2023/05/20 13:51:21;;;;;;;29.65;3.97;;;;;;;;;;4972084;28;20026;-39
2023/05/20 13:53:48;;;;;;;27.20;3.80;;;;;;;;;;4970769;28;20504;-41
2023/05/20 13:56:15;;;;;;;37.05;4.63;;;;;;;;;;4971027;28;20039;-40
2023/05/20 13:58:42;;;;;;;21.90;3.33;;;;;;;;;;4972039;28;20114;-45
2023/05/20 14:01:11;;;;;;;20.65;3.75;;;;;;;;;;4971922;28;20038;-40
2023/05/20 14:03:39;;;;;;;29.05;3.47;;;;;;;;;;4970847;28;20050;-41
2023/05/20 14:06:06;;;;;;;26.38;3.85;;;;;;;;;;4971363;28;20074;-40
2023/05/20 14:08:33;;;;;;;19.60;3.00;;;;;;;;;;4973089;28;20037;-41
2023/05/20 14:11:00;;;;;;;18.63;3.40;;;;;;;;;;4972631;28;20080;-40
2023/05/20 14:13:27;;;;;;;28.67;3.55;;;;;;;;;;4972797;28;20508;-39
2023/05/20 14:15:55;;;;;;;29.30;3.25;;;;;;;;;;4962846;28;20054;-40
2023/05/20 14:18:22;;;;;;;22.67;3.75;;;;;;;;;;4972768;28;20050;-40
2023/05/20 14:20:49;;;;;;;28.95;4.13;;;;;;;;;;4972557;28;20022;-40
2023/05/20 14:23:16;;;;;;;28.85;3.92;;;;;;;;;;4972916;28;20093;-40
2023/05/20 14:25:43;;;;;;;37.30;4.07;;;;;;;;;;4972862;28;20030;-41
2023/05/20 14:28:10;;;;;;;26.13;3.80;;;;;;;;;;4972990;28;20503;-42
2023/05/20 14:30:37;;;;;;;28.35;3.60;;;;;;;;;;4972757;28;20038;-41
2023/05/20 14:33:04;;;;;;;18.52;3.50;;;;;;;;;;4972865;28;20396;-41
2023/05/20 14:35:31;;;;;;;22.05;3.42;;;;;;;;;;4973225;28;20034;-43